sensor_id;sensor_type;location;lat;lon;timestamp;P1;durP1;ratioP1;P2;durP2;ratioP2
58727;SDS011;44505;43.240;0.070;2022-08-14T00:00:37;18.20;;;6.60;;
58727;SDS011;44505;43.240;0.070;2022-08-14T00:03:03;13.45;;;6.43;;
58727;SDS011;44505;43.240;0.070;2022-08-14T00:05:28;13.68;;;5.93;;
58727;SDS011;44505;43.240;0.070;2022-08-14T00:07:54;15.10;;;6.88;;
58727;SDS011;44505;43.240;0.070;2022-08-14T00:10:20;13.07;;;6.22;;
58727;SDS011;44505;43.240;0.070;2022-08-14T00:12:47;12.85;;;6.35;;
58727;SDS011;44505;43.240;0.070;2022-08-14T00:17:38;13.95;;;5.97;;
58727;SDS011;44505;43.240;0.070;2022-08-14T00:20:04;15.57;;;7.28;;
58727;SDS011;44505;43.240;0.070;2022-08-14T00:22:31;13.32;;;6.78;;
58727;SDS011;44505;43.240;0.070;2022-08-14T00:24:56;13.48;;;6.70;;
58727;SDS011;44505;43.240;0.070;2022-08-14T00:27:21;15.02;;;7.13;;
58727;SDS011;44505;43.240;0.070;2022-08-14T00:29:47;12.82;;;5.47;;
58727;SDS011;44505;43.240;0.070;2022-08-14T00:32:12;11.35;;;5.43;;
58727;SDS011;44505;43.240;0.070;2022-08-14T00:34:38;11.98;;;5.93;;
58727;SDS011;44505;43.240;0.070;2022-08-14T00:37:03;10.88;;;4.82;;
58727;SDS011;44505;43.240;0.070;2022-08-14T00:39:30;14.80;;;6.38;;
58727;SDS011;44505;43.240;0.070;2022-08-14T00:41:55;14.93;;;6.45;;
58727;SDS011;44505;43.240;0.070;2022-08-14T00:44:21;12.43;;;6.05;;
58727;SDS011;44505;43.240;0.070;2022-08-14T00:46:46;13.48;;;7.40;;
58727;SDS011;44505;43.240;0.070;2022-08-14T00:49:13;11.40;;;4.93;;
58727;SDS011;44505;43.240;0.070;2022-08-14T00:51:39;16.23;;;6.18;;
58727;SDS011;44505;43.240;0.070;2022-08-14T00:54:06;14.13;;;6.07;;
58727;SDS011;44505;43.240;0.070;2022-08-14T00:56:32;14.65;;;6.22;;
58727;SDS011;44505;43.240;0.070;2022-08-14T00:58:57;11.95;;;6.25;;
58727;SDS011;44505;43.240;0.070;2022-08-14T01:01:23;9.77;;;5.82;;
58727;SDS011;44505;43.240;0.070;2022-08-14T01:03:49;12.73;;;6.28;;
58727;SDS011;44505;43.240;0.070;2022-08-14T01:06:14;12.57;;;6.55;;
58727;SDS011;44505;43.240;0.070;2022-08-14T01:11:08;19.63;;;13.05;;
58727;SDS011;44505;43.240;0.070;2022-08-14T01:13:36;23.98;;;15.73;;
58727;SDS011;44505;43.240;0.070;2022-08-14T01:16:04;18.13;;;12.90;;
58727;SDS011;44505;43.240;0.070;2022-08-14T01:18:29;25.13;;;16.92;;
58727;SDS011;44505;43.240;0.070;2022-08-14T01:21:14;25.95;;;17.65;;
58727;SDS011;44505;43.240;0.070;2022-08-14T01:23:49;25.15;;;17.05;;
58727;SDS011;44505;43.240;0.070;2022-08-14T01:26:16;20.50;;;16.77;;
58727;SDS011;44505;43.240;0.070;2022-08-14T01:28:46;21.42;;;17.67;;
58727;SDS011;44505;43.240;0.070;2022-08-14T01:31:12;22.35;;;17.33;;
58727;SDS011;44505;43.240;0.070;2022-08-14T01:33:39;20.02;;;15.23;;
58727;SDS011;44505;43.240;0.070;2022-08-14T01:36:09;21.73;;;17.17;;
58727;SDS011;44505;43.240;0.070;2022-08-14T01:38:35;19.55;;;15.88;;
58727;SDS011;44505;43.240;0.070;2022-08-14T01:41:01;20.75;;;14.60;;
58727;SDS011;44505;43.240;0.070;2022-08-14T01:43:26;19.52;;;15.13;;
58727;SDS011;44505;43.240;0.070;2022-08-14T01:45:56;18.23;;;14.43;;
58727;SDS011;44505;43.240;0.070;2022-08-14T01:48:21;16.67;;;13.07;;
58727;SDS011;44505;43.240;0.070;2022-08-14T01:50:47;14.73;;;12.68;;
58727;SDS011;44505;43.240;0.070;2022-08-14T01:53:13;16.73;;;11.95;;
58727;SDS011;44505;43.240;0.070;2022-08-14T01:55:39;19.38;;;12.20;;
58727;SDS011;44505;43.240;0.070;2022-08-14T01:58:05;15.10;;;12.05;;
58727;SDS011;44505;43.240;0.070;2022-08-14T02:00:35;15.38;;;11.43;;
58727;SDS011;44505;43.240;0.070;2022-08-14T02:03:03;16.20;;;11.05;;
58727;SDS011;44505;43.240;0.070;2022-08-14T02:05:28;15.32;;;11.60;;
58727;SDS011;44505;43.240;0.070;2022-08-14T02:07:55;15.50;;;10.95;;
58727;SDS011;44505;43.240;0.070;2022-08-14T02:10:20;11.02;;;9.15;;
58727;SDS011;44505;43.240;0.070;2022-08-14T02:12:46;11.55;;;9.18;;
58727;SDS011;44505;43.240;0.070;2022-08-14T02:15:12;9.50;;;8.57;;
58727;SDS011;44505;43.240;0.070;2022-08-14T02:17:38;10.38;;;8.25;;
58727;SDS011;44505;43.240;0.070;2022-08-14T02:20:04;11.65;;;7.80;;
58727;SDS011;44505;43.240;0.070;2022-08-14T02:22:29;9.02;;;8.10;;
58727;SDS011;44505;43.240;0.070;2022-08-14T02:24:55;8.55;;;7.53;;
58727;SDS011;44505;43.240;0.070;2022-08-14T02:27:20;7.70;;;6.80;;
58727;SDS011;44505;43.240;0.070;2022-08-14T02:29:46;7.47;;;6.60;;
58727;SDS011;44505;43.240;0.070;2022-08-14T02:32:11;7.20;;;6.50;;
58727;SDS011;44505;43.240;0.070;2022-08-14T02:34:37;9.32;;;6.50;;
58727;SDS011;44505;43.240;0.070;2022-08-14T02:37:07;7.25;;;6.35;;
58727;SDS011;44505;43.240;0.070;2022-08-14T02:39:35;6.97;;;6.30;;
58727;SDS011;44505;43.240;0.070;2022-08-14T02:42:01;9.50;;;6.32;;
58727;SDS011;44505;43.240;0.070;2022-08-14T02:44:26;7.45;;;6.53;;
58727;SDS011;44505;43.240;0.070;2022-08-14T02:46:52;6.90;;;6.13;;
58727;SDS011;44505;43.240;0.070;2022-08-14T02:49:21;7.10;;;5.43;;
58727;SDS011;44505;43.240;0.070;2022-08-14T02:51:50;6.88;;;5.53;;
58727;SDS011;44505;43.240;0.070;2022-08-14T02:54:16;6.00;;;5.40;;
58727;SDS011;44505;43.240;0.070;2022-08-14T02:56:41;7.28;;;5.32;;
58727;SDS011;44505;43.240;0.070;2022-08-14T02:59:07;6.68;;;4.95;;
58727;SDS011;44505;43.240;0.070;2022-08-14T03:01:33;5.03;;;4.35;;
58727;SDS011;44505;43.240;0.070;2022-08-14T03:03:59;5.15;;;4.28;;
58727;SDS011;44505;43.240;0.070;2022-08-14T03:06:25;4.18;;;3.75;;
58727;SDS011;44505;43.240;0.070;2022-08-14T03:08:51;4.32;;;3.92;;
58727;SDS011;44505;43.240;0.070;2022-08-14T03:11:16;4.10;;;3.70;;
58727;SDS011;44505;43.240;0.070;2022-08-14T03:13:44;3.90;;;3.50;;
58727;SDS011;44505;43.240;0.070;2022-08-14T03:16:10;3.55;;;3.25;;
58727;SDS011;44505;43.240;0.070;2022-08-14T03:18:39;3.55;;;3.25;;
58727;SDS011;44505;43.240;0.070;2022-08-14T03:21:06;3.97;;;3.63;;
58727;SDS011;44505;43.240;0.070;2022-08-14T03:23:32;4.07;;;3.47;;
58727;SDS011;44505;43.240;0.070;2022-08-14T03:25:58;3.67;;;3.13;;
58727;SDS011;44505;43.240;0.070;2022-08-14T03:28:25;3.13;;;2.83;;
58727;SDS011;44505;43.240;0.070;2022-08-14T03:30:53;5.25;;;3.53;;
58727;SDS011;44505;43.240;0.070;2022-08-14T03:33:19;3.47;;;2.90;;
58727;SDS011;44505;43.240;0.070;2022-08-14T03:35:44;3.78;;;2.67;;
58727;SDS011;44505;43.240;0.070;2022-08-14T03:38:10;3.58;;;2.88;;
58727;SDS011;44505;43.240;0.070;2022-08-14T03:40:37;3.15;;;2.85;;
58727;SDS011;44505;43.240;0.070;2022-08-14T03:43:06;3.63;;;3.07;;
58727;SDS011;44505;43.240;0.070;2022-08-14T03:45:33;3.97;;;2.92;;
58727;SDS011;44505;43.240;0.070;2022-08-14T03:48:00;4.28;;;3.50;;
58727;SDS011;44505;43.240;0.070;2022-08-14T03:50:28;4.10;;;3.70;;
58727;SDS011;44505;43.240;0.070;2022-08-14T03:52:54;6.15;;;3.95;;
58727;SDS011;44505;43.240;0.070;2022-08-14T03:55:19;5.18;;;3.90;;
58727;SDS011;44505;43.240;0.070;2022-08-14T03:57:44;6.15;;;5.20;;
58727;SDS011;44505;43.240;0.070;2022-08-14T04:00:10;8.23;;;5.03;;
58727;SDS011;44505;43.240;0.070;2022-08-14T04:02:37;4.70;;;3.60;;
58727;SDS011;44505;43.240;0.070;2022-08-14T04:05:04;4.65;;;4.13;;
58727;SDS011;44505;43.240;0.070;2022-08-14T04:07:30;5.20;;;4.35;;
58727;SDS011;44505;43.240;0.070;2022-08-14T04:09:57;5.30;;;4.23;;
58727;SDS011;44505;43.240;0.070;2022-08-14T04:12:22;6.18;;;3.90;;
58727;SDS011;44505;43.240;0.070;2022-08-14T04:14:48;5.80;;;4.53;;
58727;SDS011;44505;43.240;0.070;2022-08-14T04:17:17;6.25;;;4.05;;
58727;SDS011;44505;43.240;0.070;2022-08-14T04:19:42;5.05;;;3.67;;
58727;SDS011;44505;43.240;0.070;2022-08-14T04:22:09;4.28;;;3.72;;
58727;SDS011;44505;43.240;0.070;2022-08-14T04:24:34;4.80;;;3.78;;
58727;SDS011;44505;43.240;0.070;2022-08-14T04:27:00;5.95;;;3.70;;
58727;SDS011;44505;43.240;0.070;2022-08-14T04:29:25;3.70;;;3.20;;
58727;SDS011;44505;43.240;0.070;2022-08-14T04:31:51;3.95;;;3.50;;
58727;SDS011;44505;43.240;0.070;2022-08-14T04:34:16;3.70;;;3.40;;
58727;SDS011;44505;43.240;0.070;2022-08-14T04:36:42;3.83;;;3.53;;
58727;SDS011;44505;43.240;0.070;2022-08-14T04:39:26;4.88;;;4.00;;
58727;SDS011;44505;43.240;0.070;2022-08-14T04:42:09;4.32;;;3.63;;
58727;SDS011;44505;43.240;0.070;2022-08-14T04:44:53;3.40;;;3.10;;
58727;SDS011;44505;43.240;0.070;2022-08-14T04:47:19;4.75;;;2.95;;
58727;SDS011;44505;43.240;0.070;2022-08-14T04:50:03;5.55;;;3.40;;
58727;SDS011;44505;43.240;0.070;2022-08-14T04:52:29;4.18;;;2.90;;
58727;SDS011;44505;43.240;0.070;2022-08-14T04:54:54;4.82;;;3.45;;
58727;SDS011;44505;43.240;0.070;2022-08-14T04:57:20;4.80;;;2.97;;
58727;SDS011;44505;43.240;0.070;2022-08-14T04:59:45;3.28;;;2.97;;
58727;SDS011;44505;43.240;0.070;2022-08-14T05:02:11;3.25;;;2.90;;
58727;SDS011;44505;43.240;0.070;2022-08-14T05:04:37;5.07;;;3.38;;
58727;SDS011;44505;43.240;0.070;2022-08-14T05:07:03;4.38;;;3.35;;
58727;SDS011;44505;43.240;0.070;2022-08-14T05:09:28;3.13;;;2.60;;
58727;SDS011;44505;43.240;0.070;2022-08-14T05:11:54;3.20;;;2.75;;
58727;SDS011;44505;43.240;0.070;2022-08-14T05:14:19;5.85;;;3.17;;
58727;SDS011;44505;43.240;0.070;2022-08-14T05:16:46;4.68;;;3.97;;
58727;SDS011;44505;43.240;0.070;2022-08-14T05:19:12;3.70;;;3.33;;
58727;SDS011;44505;43.240;0.070;2022-08-14T05:21:38;3.83;;;3.22;;
58727;SDS011;44505;43.240;0.070;2022-08-14T05:24:04;4.25;;;3.45;;
58727;SDS011;44505;43.240;0.070;2022-08-14T05:26:29;3.92;;;3.60;;
58727;SDS011;44505;43.240;0.070;2022-08-14T05:28:55;3.72;;;2.95;;
58727;SDS011;44505;43.240;0.070;2022-08-14T05:31:20;3.05;;;2.80;;
58727;SDS011;44505;43.240;0.070;2022-08-14T05:33:46;3.75;;;3.05;;
58727;SDS011;44505;43.240;0.070;2022-08-14T05:38:43;4.03;;;3.63;;
58727;SDS011;44505;43.240;0.070;2022-08-14T05:41:10;3.65;;;3.30;;
58727;SDS011;44505;43.240;0.070;2022-08-14T05:43:37;3.42;;;2.72;;
58727;SDS011;44505;43.240;0.070;2022-08-14T05:46:03;3.35;;;3.05;;
58727;SDS011;44505;43.240;0.070;2022-08-14T05:48:29;3.50;;;3.20;;
58727;SDS011;44505;43.240;0.070;2022-08-14T05:50:55;4.25;;;3.40;;
58727;SDS011;44505;43.240;0.070;2022-08-14T05:53:21;4.88;;;3.65;;
58727;SDS011;44505;43.240;0.070;2022-08-14T05:55:47;6.53;;;3.63;;
58727;SDS011;44505;43.240;0.070;2022-08-14T05:58:12;4.80;;;2.60;;
58727;SDS011;44505;43.240;0.070;2022-08-14T06:00:39;5.28;;;3.47;;
58727;SDS011;44505;43.240;0.070;2022-08-14T06:03:09;5.53;;;3.00;;
58727;SDS011;44505;43.240;0.070;2022-08-14T06:05:35;3.83;;;3.22;;
58727;SDS011;44505;43.240;0.070;2022-08-14T06:08:01;2.88;;;2.67;;
58727;SDS011;44505;43.240;0.070;2022-08-14T06:10:27;4.03;;;2.63;;
58727;SDS011;44505;43.240;0.070;2022-08-14T06:12:52;3.55;;;3.10;;
58727;SDS011;44505;43.240;0.070;2022-08-14T06:15:18;5.45;;;3.20;;
58727;SDS011;44505;43.240;0.070;2022-08-14T06:17:47;5.00;;;3.30;;
58727;SDS011;44505;43.240;0.070;2022-08-14T06:20:14;3.92;;;3.13;;
58727;SDS011;44505;43.240;0.070;2022-08-14T06:22:40;4.32;;;3.03;;
58727;SDS011;44505;43.240;0.070;2022-08-14T06:25:06;4.22;;;3.10;;
58727;SDS011;44505;43.240;0.070;2022-08-14T06:27:36;4.00;;;2.90;;
58727;SDS011;44505;43.240;0.070;2022-08-14T06:30:02;2.92;;;2.58;;
58727;SDS011;44505;43.240;0.070;2022-08-14T06:32:27;3.03;;;2.45;;
58727;SDS011;44505;43.240;0.070;2022-08-14T06:34:53;2.63;;;2.40;;
58727;SDS011;44505;43.240;0.070;2022-08-14T06:37:18;2.65;;;2.45;;
58727;SDS011;44505;43.240;0.070;2022-08-14T06:39:44;8.32;;;3.28;;
58727;SDS011;44505;43.240;0.070;2022-08-14T06:42:09;2.97;;;2.40;;
58727;SDS011;44505;43.240;0.070;2022-08-14T06:44:35;2.67;;;2.33;;
58727;SDS011;44505;43.240;0.070;2022-08-14T06:47:00;3.22;;;2.92;;
58727;SDS011;44505;43.240;0.070;2022-08-14T06:49:26;4.57;;;2.70;;
58727;SDS011;44505;43.240;0.070;2022-08-14T06:51:52;3.95;;;2.90;;
58727;SDS011;44505;43.240;0.070;2022-08-14T06:54:18;4.80;;;2.60;;
58727;SDS011;44505;43.240;0.070;2022-08-14T06:56:43;3.00;;;2.40;;
58727;SDS011;44505;43.240;0.070;2022-08-14T06:59:09;3.15;;;2.70;;
58727;SDS011;44505;43.240;0.070;2022-08-14T07:01:34;3.22;;;2.85;;
58727;SDS011;44505;43.240;0.070;2022-08-14T07:04:18;3.28;;;2.92;;
58727;SDS011;44505;43.240;0.070;2022-08-14T07:07:02;5.22;;;2.97;;
58727;SDS011;44505;43.240;0.070;2022-08-14T07:09:27;2.67;;;2.42;;
58727;SDS011;44505;43.240;0.070;2022-08-14T07:11:53;2.97;;;2.78;;
58727;SDS011;44505;43.240;0.070;2022-08-14T07:14:19;3.17;;;2.97;;
58727;SDS011;44505;43.240;0.070;2022-08-14T07:16:45;3.60;;;3.08;;
58727;SDS011;44505;43.240;0.070;2022-08-14T07:19:10;3.50;;;2.80;;
58727;SDS011;44505;43.240;0.070;2022-08-14T07:21:35;3.17;;;2.88;;
58727;SDS011;44505;43.240;0.070;2022-08-14T07:24:01;6.30;;;3.50;;
58727;SDS011;44505;43.240;0.070;2022-08-14T07:26:27;3.08;;;2.70;;
58727;SDS011;44505;43.240;0.070;2022-08-14T07:28:52;3.97;;;2.70;;
58727;SDS011;44505;43.240;0.070;2022-08-14T07:31:18;3.47;;;2.65;;
58727;SDS011;44505;43.240;0.070;2022-08-14T07:33:45;3.90;;;2.75;;
58727;SDS011;44505;43.240;0.070;2022-08-14T07:36:12;3.10;;;2.67;;
58727;SDS011;44505;43.240;0.070;2022-08-14T07:38:38;3.00;;;2.70;;
58727;SDS011;44505;43.240;0.070;2022-08-14T07:41:08;3.78;;;3.17;;
58727;SDS011;44505;43.240;0.070;2022-08-14T07:43:34;3.25;;;2.53;;
58727;SDS011;44505;43.240;0.070;2022-08-14T07:46:00;3.63;;;3.30;;
58727;SDS011;44505;43.240;0.070;2022-08-14T07:48:26;4.57;;;3.70;;
58727;SDS011;44505;43.240;0.070;2022-08-14T07:50:52;4.55;;;3.20;;
58727;SDS011;44505;43.240;0.070;2022-08-14T07:53:18;3.95;;;3.55;;
58727;SDS011;44505;43.240;0.070;2022-08-14T07:55:44;5.47;;;3.80;;
58727;SDS011;44505;43.240;0.070;2022-08-14T07:58:10;5.72;;;4.05;;
58727;SDS011;44505;43.240;0.070;2022-08-14T08:00:39;4.03;;;3.70;;
58727;SDS011;44505;43.240;0.070;2022-08-14T08:03:06;4.25;;;3.85;;
58727;SDS011;44505;43.240;0.070;2022-08-14T08:05:34;5.35;;;4.00;;
58727;SDS011;44505;43.240;0.070;2022-08-14T08:08:00;6.15;;;4.47;;
58727;SDS011;44505;43.240;0.070;2022-08-14T08:10:27;10.75;;;6.47;;
58727;SDS011;44505;43.240;0.070;2022-08-14T08:13:06;7.40;;;5.18;;
58727;SDS011;44505;43.240;0.070;2022-08-14T08:15:33;8.85;;;4.55;;
58727;SDS011;44505;43.240;0.070;2022-08-14T08:18:00;5.38;;;4.30;;
58727;SDS011;44505;43.240;0.070;2022-08-14T08:20:28;4.10;;;3.70;;
58727;SDS011;44505;43.240;0.070;2022-08-14T08:22:55;5.32;;;3.95;;
58727;SDS011;44505;43.240;0.070;2022-08-14T08:25:23;3.97;;;3.65;;
58727;SDS011;44505;43.240;0.070;2022-08-14T08:27:55;5.03;;;4.18;;
58727;SDS011;44505;43.240;0.070;2022-08-14T08:30:22;4.32;;;3.92;;
58727;SDS011;44505;43.240;0.070;2022-08-14T08:32:49;5.15;;;4.20;;
58727;SDS011;44505;43.240;0.070;2022-08-14T08:35:16;3.95;;;3.65;;
58727;SDS011;44505;43.240;0.070;2022-08-14T08:37:41;4.05;;;3.75;;
58727;SDS011;44505;43.240;0.070;2022-08-14T08:40:07;4.47;;;3.97;;
58727;SDS011;44505;43.240;0.070;2022-08-14T08:42:32;5.80;;;4.00;;
58727;SDS011;44505;43.240;0.070;2022-08-14T08:44:58;6.03;;;3.80;;
58727;SDS011;44505;43.240;0.070;2022-08-14T08:47:24;4.90;;;3.50;;
58727;SDS011;44505;43.240;0.070;2022-08-14T08:49:50;4.18;;;3.70;;
58727;SDS011;44505;43.240;0.070;2022-08-14T08:52:17;4.03;;;3.70;;
58727;SDS011;44505;43.240;0.070;2022-08-14T08:54:51;3.87;;;3.57;;
58727;SDS011;44505;43.240;0.070;2022-08-14T08:57:17;4.45;;;4.05;;
58727;SDS011;44505;43.240;0.070;2022-08-14T08:59:43;5.25;;;3.67;;
58727;SDS011;44505;43.240;0.070;2022-08-14T09:02:08;4.27;;;3.83;;
58727;SDS011;44505;43.240;0.070;2022-08-14T09:04:35;5.57;;;3.93;;
58727;SDS011;44505;43.240;0.070;2022-08-14T09:07:01;4.05;;;3.65;;
58727;SDS011;44505;43.240;0.070;2022-08-14T09:09:28;4.03;;;3.53;;
58727;SDS011;44505;43.240;0.070;2022-08-14T09:11:54;4.90;;;4.47;;
58727;SDS011;44505;43.240;0.070;2022-08-14T09:14:21;5.72;;;5.15;;
58727;SDS011;44505;43.240;0.070;2022-08-14T09:16:48;5.30;;;4.80;;
58727;SDS011;44505;43.240;0.070;2022-08-14T09:19:13;4.95;;;4.43;;
58727;SDS011;44505;43.240;0.070;2022-08-14T09:21:39;4.50;;;4.00;;
58727;SDS011;44505;43.240;0.070;2022-08-14T09:24:05;3.88;;;3.42;;
58727;SDS011;44505;43.240;0.070;2022-08-14T09:26:31;4.82;;;4.43;;
58727;SDS011;44505;43.240;0.070;2022-08-14T09:28:56;4.70;;;3.83;;
58727;SDS011;44505;43.240;0.070;2022-08-14T09:31:22;4.53;;;3.50;;
58727;SDS011;44505;43.240;0.070;2022-08-14T09:46:57;3.88;;;2.85;;
58727;SDS011;44505;43.240;0.070;2022-08-14T09:49:37;3.05;;;2.50;;
58727;SDS011;44505;43.240;0.070;2022-08-14T09:52:06;3.33;;;2.80;;
58727;SDS011;44505;43.240;0.070;2022-08-14T09:54:50;3.20;;;2.92;;
58727;SDS011;44505;43.240;0.070;2022-08-14T09:57:26;3.00;;;2.63;;
58727;SDS011;44505;43.240;0.070;2022-08-14T09:59:51;3.10;;;2.90;;
58727;SDS011;44505;43.240;0.070;2022-08-14T10:02:21;4.93;;;3.20;;
58727;SDS011;44505;43.240;0.070;2022-08-14T10:04:57;3.40;;;3.10;;
58727;SDS011;44505;43.240;0.070;2022-08-14T10:07:30;3.40;;;3.10;;
58727;SDS011;44505;43.240;0.070;2022-08-14T10:09:55;15.50;;;4.22;;
58727;SDS011;44505;43.240;0.070;2022-08-14T10:12:21;3.30;;;3.00;;
58727;SDS011;44505;43.240;0.070;2022-08-14T10:14:46;3.30;;;3.00;;
58727;SDS011;44505;43.240;0.070;2022-08-14T10:17:20;3.33;;;3.03;;
58727;SDS011;44505;43.240;0.070;2022-08-14T10:19:47;4.65;;;3.63;;
58727;SDS011;44505;43.240;0.070;2022-08-14T10:22:13;7.45;;;5.82;;
58727;SDS011;44505;43.240;0.070;2022-08-14T10:24:39;7.97;;;6.13;;
58727;SDS011;44505;43.240;0.070;2022-08-14T10:27:26;7.68;;;4.32;;
58727;SDS011;44505;43.240;0.070;2022-08-14T10:29:52;7.93;;;6.50;;
58727;SDS011;44505;43.240;0.070;2022-08-14T10:34:46;5.97;;;4.47;;
58727;SDS011;44505;43.240;0.070;2022-08-14T10:37:12;6.10;;;5.10;;
58727;SDS011;44505;43.240;0.070;2022-08-14T10:39:38;6.83;;;4.83;;
58727;SDS011;44505;43.240;0.070;2022-08-14T10:42:05;6.20;;;4.78;;
58727;SDS011;44505;43.240;0.070;2022-08-14T10:44:35;5.43;;;4.72;;
58727;SDS011;44505;43.240;0.070;2022-08-14T10:47:02;4.78;;;4.28;;
58727;SDS011;44505;43.240;0.070;2022-08-14T10:49:32;4.82;;;4.30;;
58727;SDS011;44505;43.240;0.070;2022-08-14T10:54:48;4.13;;;3.70;;
58727;SDS011;44505;43.240;0.070;2022-08-14T10:59:47;11.55;;;6.78;;
58727;SDS011;44505;43.240;0.070;2022-08-14T11:04:55;4.57;;;4.07;;
58727;SDS011;44505;43.240;0.070;2022-08-14T11:07:21;3.83;;;3.53;;
58727;SDS011;44505;43.240;0.070;2022-08-14T11:09:58;3.93;;;3.63;;
58727;SDS011;44505;43.240;0.070;2022-08-14T11:12:24;4.03;;;3.65;;
58727;SDS011;44505;43.240;0.070;2022-08-14T11:14:54;4.82;;;4.00;;
58727;SDS011;44505;43.240;0.070;2022-08-14T11:17:21;4.43;;;3.85;;
58727;SDS011;44505;43.240;0.070;2022-08-14T11:19:50;4.18;;;3.80;;
58727;SDS011;44505;43.240;0.070;2022-08-14T11:22:17;6.00;;;4.38;;
58727;SDS011;44505;43.240;0.070;2022-08-14T11:24:43;5.78;;;4.45;;
58727;SDS011;44505;43.240;0.070;2022-08-14T11:27:09;5.72;;;4.60;;
58727;SDS011;44505;43.240;0.070;2022-08-14T11:29:35;6.28;;;4.28;;
58727;SDS011;44505;43.240;0.070;2022-08-14T11:32:02;5.20;;;3.88;;
58727;SDS011;44505;43.240;0.070;2022-08-14T11:34:28;5.70;;;5.07;;
58727;SDS011;44505;43.240;0.070;2022-08-14T11:36:53;5.15;;;4.65;;
58727;SDS011;44505;43.240;0.070;2022-08-14T11:39:21;5.03;;;4.53;;
58727;SDS011;44505;43.240;0.070;2022-08-14T11:41:46;6.93;;;5.28;;
58727;SDS011;44505;43.240;0.070;2022-08-14T11:44:12;5.55;;;4.65;;
58727;SDS011;44505;43.240;0.070;2022-08-14T11:46:39;7.30;;;5.28;;
58727;SDS011;44505;43.240;0.070;2022-08-14T11:49:05;7.10;;;5.80;;
58727;SDS011;44505;43.240;0.070;2022-08-14T11:51:33;6.40;;;5.78;;
58727;SDS011;44505;43.240;0.070;2022-08-14T11:54:02;6.80;;;5.50;;
58727;SDS011;44505;43.240;0.070;2022-08-14T11:56:37;5.57;;;4.95;;
58727;SDS011;44505;43.240;0.070;2022-08-14T11:59:05;6.60;;;4.53;;
58727;SDS011;44505;43.240;0.070;2022-08-14T12:01:31;4.47;;;4.07;;
58727;SDS011;44505;43.240;0.070;2022-08-14T12:04:09;6.57;;;4.75;;
58727;SDS011;44505;43.240;0.070;2022-08-14T12:06:45;5.38;;;3.85;;
58727;SDS011;44505;43.240;0.070;2022-08-14T12:09:26;4.32;;;3.80;;
58727;SDS011;44505;43.240;0.070;2022-08-14T12:11:51;4.47;;;4.07;;
58727;SDS011;44505;43.240;0.070;2022-08-14T12:14:17;5.97;;;4.20;;
58727;SDS011;44505;43.240;0.070;2022-08-14T12:16:42;6.00;;;4.40;;
58727;SDS011;44505;43.240;0.070;2022-08-14T12:19:09;7.03;;;4.30;;
58727;SDS011;44505;43.240;0.070;2022-08-14T12:21:34;5.78;;;4.53;;
58727;SDS011;44505;43.240;0.070;2022-08-14T12:24:04;5.75;;;5.15;;
58727;SDS011;44505;43.240;0.070;2022-08-14T12:26:30;6.53;;;4.43;;
58727;SDS011;44505;43.240;0.070;2022-08-14T12:31:32;6.47;;;4.40;;
58727;SDS011;44505;43.240;0.070;2022-08-14T12:33:59;6.95;;;4.53;;
58727;SDS011;44505;43.240;0.070;2022-08-14T12:36:25;9.05;;;6.57;;
58727;SDS011;44505;43.240;0.070;2022-08-14T12:38:54;6.57;;;5.55;;
58727;SDS011;44505;43.240;0.070;2022-08-14T12:41:20;6.20;;;4.68;;
58727;SDS011;44505;43.240;0.070;2022-08-14T12:43:52;5.67;;;5.13;;
58727;SDS011;44505;43.240;0.070;2022-08-14T12:46:25;5.63;;;5.10;;
58727;SDS011;44505;43.240;0.070;2022-08-14T12:48:51;6.85;;;5.45;;
58727;SDS011;44505;43.240;0.070;2022-08-14T12:51:20;5.43;;;4.93;;
58727;SDS011;44505;43.240;0.070;2022-08-14T12:53:47;6.97;;;5.45;;
58727;SDS011;44505;43.240;0.070;2022-08-14T12:56:15;6.75;;;5.30;;
58727;SDS011;44505;43.240;0.070;2022-08-14T12:58:41;6.25;;;5.53;;
58727;SDS011;44505;43.240;0.070;2022-08-14T13:01:17;5.80;;;5.30;;
58727;SDS011;44505;43.240;0.070;2022-08-14T13:03:42;8.60;;;6.32;;
58727;SDS011;44505;43.240;0.070;2022-08-14T13:06:09;6.78;;;6.00;;
58727;SDS011;44505;43.240;0.070;2022-08-14T13:08:35;7.30;;;6.05;;
58727;SDS011;44505;43.240;0.070;2022-08-14T13:11:01;6.53;;;5.93;;
58727;SDS011;44505;43.240;0.070;2022-08-14T13:13:30;6.93;;;6.22;;
58727;SDS011;44505;43.240;0.070;2022-08-14T13:15:58;9.13;;;6.28;;
58727;SDS011;44505;43.240;0.070;2022-08-14T13:18:24;6.90;;;6.20;;
58727;SDS011;44505;43.240;0.070;2022-08-14T13:20:50;7.32;;;6.47;;
58727;SDS011;44505;43.240;0.070;2022-08-14T13:23:16;7.43;;;6.32;;
58727;SDS011;44505;43.240;0.070;2022-08-14T13:25:42;6.88;;;6.18;;
58727;SDS011;44505;43.240;0.070;2022-08-14T13:28:08;6.90;;;6.20;;
58727;SDS011;44505;43.240;0.070;2022-08-14T13:30:35;8.13;;;6.25;;
58727;SDS011;44505;43.240;0.070;2022-08-14T13:33:02;17.17;;;6.60;;
58727;SDS011;44505;43.240;0.070;2022-08-14T13:35:29;8.13;;;5.82;;
58727;SDS011;44505;43.240;0.070;2022-08-14T13:37:55;7.57;;;6.47;;
58727;SDS011;44505;43.240;0.070;2022-08-14T13:40:21;9.23;;;6.25;;
58727;SDS011;44505;43.240;0.070;2022-08-14T13:42:47;7.93;;;6.35;;
58727;SDS011;44505;43.240;0.070;2022-08-14T13:45:14;6.53;;;5.93;;
58727;SDS011;44505;43.240;0.070;2022-08-14T13:47:40;7.57;;;5.72;;
58727;SDS011;44505;43.240;0.070;2022-08-14T13:50:06;6.63;;;5.75;;
58727;SDS011;44505;43.240;0.070;2022-08-14T13:52:38;7.38;;;6.63;;
58727;SDS011;44505;43.240;0.070;2022-08-14T13:55:05;8.23;;;7.13;;
58727;SDS011;44505;43.240;0.070;2022-08-14T13:57:32;9.80;;;7.82;;
58727;SDS011;44505;43.240;0.070;2022-08-14T14:00:05;7.70;;;6.38;;
58727;SDS011;44505;43.240;0.070;2022-08-14T14:02:36;6.60;;;5.90;;
58727;SDS011;44505;43.240;0.070;2022-08-14T14:05:02;7.45;;;5.95;;
58727;SDS011;44505;43.240;0.070;2022-08-14T14:07:28;7.47;;;6.32;;
58727;SDS011;44505;43.240;0.070;2022-08-14T14:09:55;7.38;;;6.68;;
58727;SDS011;44505;43.240;0.070;2022-08-14T14:12:22;8.40;;;7.18;;
58727;SDS011;44505;43.240;0.070;2022-08-14T14:14:48;8.07;;;7.20;;
58727;SDS011;44505;43.240;0.070;2022-08-14T14:19:42;6.35;;;5.57;;
58727;SDS011;44505;43.240;0.070;2022-08-14T14:22:11;10.02;;;6.45;;
58727;SDS011;44505;43.240;0.070;2022-08-14T14:24:37;7.13;;;5.50;;
58727;SDS011;44505;43.240;0.070;2022-08-14T14:27:04;6.43;;;5.80;;
58727;SDS011;44505;43.240;0.070;2022-08-14T14:29:29;7.30;;;5.78;;
58727;SDS011;44505;43.240;0.070;2022-08-14T14:31:56;6.88;;;6.18;;
58727;SDS011;44505;43.240;0.070;2022-08-14T14:34:23;7.18;;;6.47;;
58727;SDS011;44505;43.240;0.070;2022-08-14T14:36:48;7.95;;;6.38;;
58727;SDS011;44505;43.240;0.070;2022-08-14T14:39:15;6.82;;;6.13;;
58727;SDS011;44505;43.240;0.070;2022-08-14T14:41:40;7.20;;;6.50;;
58727;SDS011;44505;43.240;0.070;2022-08-14T14:44:08;6.57;;;5.88;;
58727;SDS011;44505;43.240;0.070;2022-08-14T14:46:36;8.82;;;6.35;;
58727;SDS011;44505;43.240;0.070;2022-08-14T14:49:03;10.30;;;6.23;;
58727;SDS011;44505;43.240;0.070;2022-08-14T14:51:29;7.70;;;6.47;;
58727;SDS011;44505;43.240;0.070;2022-08-14T14:53:55;6.35;;;5.60;;
58727;SDS011;44505;43.240;0.070;2022-08-14T14:56:21;7.32;;;5.43;;
58727;SDS011;44505;43.240;0.070;2022-08-14T14:58:48;7.40;;;5.13;;
58727;SDS011;44505;43.240;0.070;2022-08-14T15:01:14;6.32;;;5.20;;
58727;SDS011;44505;43.240;0.070;2022-08-14T15:03:47;6.40;;;5.70;;
58727;SDS011;44505;43.240;0.070;2022-08-14T15:06:13;6.77;;;5.67;;
58727;SDS011;44505;43.240;0.070;2022-08-14T15:08:39;6.40;;;5.40;;
58727;SDS011;44505;43.240;0.070;2022-08-14T15:11:05;6.63;;;5.38;;
58727;SDS011;44505;43.240;0.070;2022-08-14T15:13:32;5.88;;;5.28;;
58727;SDS011;44505;43.240;0.070;2022-08-14T15:15:57;7.30;;;4.97;;
58727;SDS011;44505;43.240;0.070;2022-08-14T15:18:23;6.25;;;5.32;;
58727;SDS011;44505;43.240;0.070;2022-08-14T15:20:51;7.60;;;6.00;;